createdAt,value
2017-09-12T00:00:25.457Z,0.00
2017-09-12T00:01:25.421Z,0.00
2017-09-12T00:02:25.474Z,0.00
2017-09-12T00:03:25.440Z,0.00
2017-09-12T00:04:26.509Z,0.00
2017-09-12T00:05:25.456Z,0.00
2017-09-12T00:06:25.493Z,0.00
2017-09-12T00:07:25.485Z,0.00
2017-09-12T00:08:26.539Z,0.00
2017-09-12T00:09:25.503Z,0.00
2017-09-12T00:10:25.705Z,0.00
2017-09-12T00:11:25.573Z,0.00
2017-09-12T00:12:26.564Z,0.00
2017-09-12T00:13:25.547Z,0.00
2017-09-12T00:14:25.656Z,0.00
2017-09-12T00:15:25.576Z,0.00
2017-09-12T00:16:25.669Z,0.00
2017-09-12T00:17:25.597Z,0.00
2017-09-12T00:18:25.682Z,0.00
2017-09-12T00:19:25.613Z,0.00
2017-09-12T00:20:27.742Z,0.00
2017-09-12T00:21:25.645Z,0.00
2017-09-12T00:22:25.709Z,0.00
2017-09-12T00:23:25.657Z,0.00
2017-09-12T00:24:25.751Z,0.00
2017-09-12T00:25:25.679Z,0.00
2017-09-12T00:26:25.736Z,0.00
2017-09-12T00:27:25.703Z,0.00
2017-09-12T00:28:25.752Z,0.00
2017-09-12T00:29:25.725Z,0.00
2017-09-12T00:30:26.788Z,0.00
2017-09-12T00:31:25.747Z,0.00
2017-09-12T00:32:25.775Z,0.00
2017-09-12T00:33:25.765Z,0.00
2017-09-12T00:34:25.894Z,0.00
2017-09-12T00:35:25.788Z,0.00
2017-09-12T00:36:25.911Z,0.00
2017-09-12T00:37:25.807Z,0.00
2017-09-12T00:38:25.997Z,0.00
2017-09-12T00:39:25.847Z,0.00
2017-09-12T00:40:25.931Z,0.00
2017-09-12T00:41:25.851Z,0.00
2017-09-12T00:42:25.947Z,0.00
2017-09-12T00:43:25.876Z,0.00
2017-09-12T00:44:25.965Z,0.00
2017-09-12T00:45:25.897Z,0.00
2017-09-12T00:46:25.975Z,0.00
2017-09-12T00:47:25.919Z,0.00
2017-09-12T00:48:28.586Z,0.00
2017-09-12T00:49:26.062Z,0.00
2017-09-12T00:50:25.952Z,0.00
2017-09-12T00:51:25.964Z,0.00
2017-09-12T00:52:25.970Z,0.00
2017-09-12T00:53:25.986Z,0.00
2017-09-12T00:54:25.994Z,0.00
2017-09-12T00:55:26.012Z,0.00
2017-09-12T00:56:26.018Z,0.00
2017-09-12T00:57:26.028Z,0.00
2017-09-12T00:58:26.040Z,0.00
2017-09-12T00:59:26.050Z,0.00
2017-09-12T01:00:26.067Z,0.00
2017-09-12T01:01:26.076Z,0.00
2017-09-12T01:02:27.165Z,0.00
2017-09-12T01:03:26.089Z,0.00
2017-09-12T01:04:27.278Z,0.00
2017-09-12T01:05:26.113Z,0.00
2017-09-12T01:06:26.127Z,0.00
2017-09-12T01:07:26.174Z,0.00
2017-09-12T01:08:26.146Z,0.00
2017-09-12T01:09:26.187Z,0.00
2017-09-12T01:10:26.165Z,0.00
2017-09-12T01:11:26.177Z,0.00
2017-09-12T01:12:26.192Z,0.00
2017-09-12T01:13:26.202Z,0.00
2017-09-12T01:14:26.211Z,0.00
2017-09-12T01:15:26.255Z,0.00
2017-09-12T01:16:26.234Z,0.00
2017-09-12T01:17:26.246Z,0.00
2017-09-12T01:18:26.256Z,0.00
2017-09-12T01:19:26.266Z,0.00
2017-09-12T01:20:26.274Z,0.00
2017-09-12T01:21:26.284Z,0.00
2017-09-12T01:22:26.307Z,0.00
2017-09-12T01:23:26.320Z,0.00
2017-09-12T01:24:26.317Z,0.00
2017-09-12T01:25:26.332Z,0.00
2017-09-12T01:26:26.407Z,0.00
2017-09-12T01:27:26.351Z,0.00
2017-09-12T01:28:27.447Z,0.00
2017-09-12T01:29:26.381Z,0.00
2017-09-12T01:30:26.385Z,0.00
2017-09-12T01:31:27.110Z,0.00
2017-09-12T01:32:26.402Z,0.00
2017-09-12T01:33:26.416Z,0.00
2017-09-12T01:34:26.430Z,0.00
2017-09-12T01:35:26.441Z,0.00
2017-09-12T01:36:26.448Z,0.00
2017-09-12T01:37:26.458Z,0.00
2017-09-12T01:38:26.466Z,0.00
2017-09-12T01:39:26.481Z,0.00
2017-09-12T01:40:26.490Z,0.00
2017-09-12T01:41:26.507Z,0.00
2017-09-12T01:42:26.514Z,0.00
2017-09-12T01:43:26.525Z,0.00
2017-09-12T01:44:26.534Z,0.00
2017-09-12T01:45:26.634Z,0.00
2017-09-12T01:46:26.567Z,0.00
2017-09-12T01:47:26.570Z,0.00
2017-09-12T01:48:26.588Z,0.00
2017-09-12T01:49:26.588Z,0.00
2017-09-12T01:50:26.608Z,0.00
2017-09-12T01:51:26.616Z,0.00
2017-09-12T01:52:26.625Z,0.00
2017-09-12T01:53:26.633Z,0.00
2017-09-12T01:54:26.637Z,0.00
2017-09-12T01:55:27.728Z,0.00
2017-09-12T01:56:26.660Z,0.00
2017-09-12T01:57:26.720Z,0.00
2017-09-12T01:58:26.680Z,0.00
2017-09-12T01:59:27.752Z,0.00
2017-09-12T02:00:26.705Z,0.00
2017-09-12T02:01:26.714Z,0.00
2017-09-12T02:02:26.720Z,0.00
2017-09-12T02:03:26.744Z,0.00
2017-09-12T02:04:26.753Z,0.00
2017-09-12T02:05:26.756Z,0.00
2017-09-12T02:06:26.767Z,0.00
2017-09-12T02:07:26.775Z,0.00
2017-09-12T02:08:26.790Z,0.00
2017-09-12T02:09:26.799Z,0.00
2017-09-12T02:10:26.813Z,0.00
2017-09-12T02:11:26.821Z,0.00
2017-09-12T02:12:26.841Z,0.00
2017-09-12T02:13:26.926Z,0.00
2017-09-12T02:14:26.858Z,0.00
2017-09-12T02:15:26.874Z,0.00
2017-09-12T02:16:26.947Z,0.00
2017-09-12T02:17:26.889Z,0.00
2017-09-12T02:18:27.987Z,0.00
2017-09-12T02:19:26.912Z,0.00
2017-09-12T02:20:26.915Z,0.00
2017-09-12T02:21:26.965Z,0.00
2017-09-12T02:22:26.990Z,0.00
2017-09-12T02:23:26.959Z,0.00
2017-09-12T02:24:26.963Z,0.00
2017-09-12T02:25:26.971Z,0.00
2017-09-12T02:26:26.982Z,0.00
2017-09-12T02:27:27.003Z,0.00
2017-09-12T02:28:27.008Z,0.00
2017-09-12T02:29:27.014Z,0.00
2017-09-12T02:30:27.023Z,0.00
2017-09-12T02:31:27.032Z,0.00
2017-09-12T02:32:27.046Z,0.00
2017-09-12T02:33:27.058Z,0.00
2017-09-12T02:34:27.065Z,0.00
2017-09-12T02:35:27.081Z,0.00
2017-09-12T02:36:27.096Z,0.00
2017-09-12T02:37:27.105Z,0.00
2017-09-12T02:38:27.111Z,0.00
2017-09-12T02:39:27.222Z,0.00
2017-09-12T02:40:27.133Z,0.00
2017-09-12T02:41:27.228Z,0.00
2017-09-12T02:42:27.157Z,0.00
2017-09-12T02:43:27.165Z,0.00
2017-09-12T02:44:27.174Z,0.00
2017-09-12T02:45:27.181Z,0.00
2017-09-12T02:46:27.195Z,0.00
2017-09-12T02:47:27.212Z,0.00
2017-09-12T02:48:27.228Z,0.00
2017-09-12T02:49:27.386Z,0.00
2017-09-12T02:50:27.243Z,0.00
2017-09-12T02:51:27.250Z,0.00
2017-09-12T02:52:27.254Z,0.00
2017-09-12T02:53:27.266Z,0.00
2017-09-12T02:54:27.284Z,0.00
2017-09-12T02:55:27.311Z,0.00
2017-09-12T02:56:27.432Z,0.00
2017-09-12T02:57:27.309Z,0.00
2017-09-12T02:58:27.442Z,0.00
2017-09-12T02:59:27.332Z,0.00
2017-09-12T03:00:27.342Z,0.00
2017-09-12T03:01:27.467Z,0.00
2017-09-12T03:02:27.374Z,0.00
2017-09-12T03:03:27.376Z,0.00
2017-09-12T03:04:27.382Z,0.00
2017-09-12T03:05:27.397Z,0.00
2017-09-12T03:06:27.408Z,0.00
2017-09-12T03:07:27.502Z,0.00
2017-09-12T03:08:27.428Z,0.00
2017-09-12T03:09:27.436Z,0.00
2017-09-12T03:10:28.555Z,0.00
2017-09-12T03:11:27.457Z,0.00
2017-09-12T03:12:27.467Z,0.00
2017-09-12T03:13:27.484Z,0.00
2017-09-12T03:14:33.234Z,0.00
2017-09-12T03:15:27.504Z,0.00
2017-09-12T03:16:27.618Z,0.00
2017-09-12T03:17:27.523Z,0.00
2017-09-12T03:18:27.636Z,0.00
2017-09-12T03:19:27.550Z,0.00
2017-09-12T03:20:27.653Z,0.00
2017-09-12T03:21:27.574Z,0.00
2017-09-12T03:22:27.666Z,0.00
2017-09-12T03:23:27.585Z,0.00
2017-09-12T03:24:27.676Z,0.00
2017-09-12T03:25:27.608Z,0.00
2017-09-12T03:26:27.688Z,0.00
2017-09-12T03:27:27.637Z,0.00
2017-09-12T03:28:27.702Z,0.00
2017-09-12T03:29:27.658Z,0.00
2017-09-12T03:30:27.719Z,0.00
2017-09-12T03:31:27.676Z,0.00
2017-09-12T03:32:27.730Z,0.00
2017-09-12T03:33:27.694Z,0.00
2017-09-12T03:34:27.742Z,0.00
2017-09-12T03:35:27.716Z,0.00
2017-09-12T03:36:27.753Z,0.00
2017-09-12T03:37:27.739Z,0.00
2017-09-12T03:38:27.872Z,0.00
2017-09-12T03:39:27.774Z,0.00
2017-09-12T03:40:27.883Z,0.00
2017-09-12T03:41:27.772Z,0.00
2017-09-12T03:42:27.924Z,0.00
2017-09-12T03:43:27.801Z,0.00
2017-09-12T03:44:27.923Z,0.00
2017-09-12T03:45:27.821Z,0.00
2017-09-12T03:46:27.927Z,0.00
2017-09-12T03:47:27.836Z,0.00
2017-09-12T03:48:27.938Z,0.00
2017-09-12T03:49:27.857Z,0.00
2017-09-12T03:50:27.962Z,0.00
2017-09-12T03:51:27.886Z,0.00
2017-09-12T03:52:28.989Z,0.00
2017-09-12T03:53:27.903Z,0.00
2017-09-12T03:54:27.978Z,0.00
2017-09-12T03:55:27.927Z,0.00
2017-09-12T03:56:27.993Z,0.00
2017-09-12T03:57:27.950Z,0.00
2017-09-12T03:58:28.004Z,0.00
2017-09-12T03:59:27.965Z,0.00
2017-09-12T04:00:28.018Z,0.00
2017-09-12T04:01:27.990Z,0.00
2017-09-12T04:02:28.135Z,0.00
2017-09-12T04:03:28.012Z,0.00
2017-09-12T04:04:28.147Z,0.00
2017-09-12T04:05:29.674Z,0.00
2017-09-12T04:06:43.715Z,0.00
2017-09-12T04:07:28.050Z,0.00
2017-09-12T04:08:30.114Z,0.00
2017-09-12T04:09:28.071Z,0.00
2017-09-12T04:10:32.795Z,0.00
2017-09-12T04:11:28.088Z,0.00
2017-09-12T04:12:28.193Z,0.00
2017-09-12T04:13:28.120Z,0.00
2017-09-12T04:14:28.210Z,0.00
2017-09-12T04:15:28.135Z,0.00
2017-09-12T04:16:28.226Z,0.00
2017-09-12T04:17:28.159Z,0.00
2017-09-12T04:18:30.281Z,0.00
2017-09-12T04:19:28.180Z,0.00
2017-09-12T04:20:30.311Z,0.00
2017-09-12T04:21:28.201Z,0.00
2017-09-12T04:22:35.226Z,0.00
2017-09-12T04:23:28.220Z,0.00
2017-09-12T04:24:28.274Z,0.00
2017-09-12T04:25:28.247Z,0.00
2017-09-12T04:26:34.260Z,0.00
2017-09-12T04:27:28.284Z,0.00
2017-09-12T04:28:35.168Z,0.00
2017-09-12T04:29:28.285Z,0.00
2017-09-12T04:30:28.420Z,0.00
2017-09-12T04:31:28.305Z,0.00
2017-09-12T04:32:28.448Z,0.00
2017-09-12T04:33:28.317Z,0.00
2017-09-12T04:34:29.575Z,0.00
2017-09-12T04:35:28.353Z,0.00
2017-09-12T04:36:28.369Z,0.00
2017-09-12T04:37:30.420Z,0.00
2017-09-12T04:38:28.369Z,0.00
2017-09-12T04:39:29.506Z,0.00
2017-09-12T04:40:28.394Z,0.00
2017-09-12T04:41:45.291Z,0.00
2017-09-12T04:42:28.436Z,0.00
2017-09-12T04:43:29.536Z,0.00
2017-09-12T04:44:28.451Z,0.00
2017-09-12T04:45:30.572Z,0.00
2017-09-12T04:46:28.459Z,0.00
2017-09-12T04:47:35.203Z,0.00
2017-09-12T04:48:28.477Z,0.00
2017-09-12T04:49:28.551Z,0.00
2017-09-12T04:50:28.504Z,0.00
2017-09-12T04:51:30.609Z,0.00
2017-09-12T04:52:28.523Z,0.00
2017-09-12T04:53:33.291Z,0.00
2017-09-12T04:54:28.543Z,0.00
2017-09-12T04:55:28.690Z,0.00
2017-09-12T04:56:28.564Z,0.00
2017-09-12T04:57:28.703Z,0.00
2017-09-12T04:58:28.583Z,0.00
2017-09-12T04:59:28.724Z,0.00
2017-09-12T05:00:28.602Z,0.00
2017-09-12T05:01:28.732Z,0.00
2017-09-12T05:02:28.625Z,0.00
2017-09-12T05:03:28.771Z,0.00
2017-09-12T05:04:28.647Z,0.00
2017-09-12T05:05:28.760Z,0.00
2017-09-12T05:06:28.664Z,0.00
2017-09-12T05:07:28.777Z,0.00
2017-09-12T05:08:28.690Z,0.00
2017-09-12T05:09:39.743Z,0.00
2017-09-12T05:10:28.708Z,0.00
2017-09-12T05:11:28.802Z,0.00
2017-09-12T05:12:28.728Z,0.00
2017-09-12T05:13:30.865Z,0.00
2017-09-12T05:14:28.758Z,0.00
2017-09-12T05:15:39.782Z,0.00
2017-09-12T05:16:28.770Z,0.00
2017-09-12T05:17:33.776Z,0.00
2017-09-12T05:18:28.791Z,0.00
2017-09-12T05:19:29.019Z,0.00
2017-09-12T05:20:28.819Z,0.00
2017-09-12T05:21:28.842Z,0.00
2017-09-12T05:22:28.839Z,0.00
2017-09-12T05:23:28.846Z,0.00
2017-09-12T05:24:28.858Z,0.00
2017-09-12T05:25:28.963Z,0.00
2017-09-12T05:26:28.870Z,0.00
2017-09-12T05:27:31.024Z,0.00
2017-09-12T05:28:28.890Z,0.00
2017-09-12T05:29:28.908Z,0.00
2017-09-12T05:30:28.914Z,0.00
2017-09-12T05:31:28.925Z,5.63
2017-09-12T05:32:28.937Z,5.63
2017-09-12T05:33:28.944Z,0.00
2017-09-12T05:34:28.957Z,0.00
2017-09-12T05:35:28.965Z,5.63
2017-09-12T05:36:28.983Z,5.63
2017-09-12T05:37:28.983Z,5.63
2017-09-12T05:38:28.997Z,5.63
2017-09-12T05:39:29.003Z,5.63
2017-09-12T05:40:29.021Z,5.63
2017-09-12T05:41:29.072Z,5.63
2017-09-12T05:42:29.046Z,0.00
2017-09-12T05:43:29.048Z,0.00
2017-09-12T05:44:29.060Z,0.00
2017-09-12T05:45:29.201Z,0.00
2017-09-12T05:46:29.074Z,0.00
2017-09-12T05:47:29.212Z,0.00
2017-09-12T05:48:29.097Z,0.00
2017-09-12T05:49:29.225Z,0.00
2017-09-12T05:50:29.118Z,0.00
2017-09-12T05:51:29.240Z,0.00
2017-09-12T05:52:29.145Z,0.00
2017-09-12T05:53:29.149Z,0.00
2017-09-12T05:54:29.164Z,0.00
2017-09-12T05:55:29.172Z,0.00
2017-09-12T05:56:29.265Z,5.63
2017-09-12T05:57:29.190Z,5.63
2017-09-12T05:58:29.201Z,5.63
2017-09-12T05:59:29.214Z,5.63
2017-09-12T06:00:35.231Z,5.63
2017-09-12T06:01:29.231Z,5.63
2017-09-12T06:02:30.325Z,5.63
2017-09-12T06:03:29.270Z,11.25
2017-09-12T06:04:29.319Z,11.25
2017-09-12T06:05:29.277Z,16.88
2017-09-12T06:06:29.314Z,16.88
2017-09-12T06:07:29.304Z,22.50
2017-09-12T06:08:29.345Z,16.88
2017-09-12T06:09:29.312Z,16.88
2017-09-12T06:10:29.361Z,16.88
2017-09-12T06:11:29.337Z,22.50
2017-09-12T06:12:29.354Z,22.50
2017-09-12T06:13:29.354Z,16.88
2017-09-12T06:14:29.486Z,16.88
2017-09-12T06:15:29.378Z,11.25
2017-09-12T06:16:29.498Z,16.88
2017-09-12T06:17:29.398Z,16.88
2017-09-12T06:18:29.413Z,16.88
2017-09-12T06:19:29.521Z,11.25
2017-09-12T06:20:29.431Z,16.88
2017-09-12T06:21:29.531Z,22.50
2017-09-12T06:22:29.450Z,28.13
2017-09-12T06:23:29.549Z,11.25
2017-09-12T06:24:29.478Z,11.25
2017-09-12T06:25:29.557Z,16.88
2017-09-12T06:26:29.496Z,22.50
2017-09-12T06:27:29.571Z,22.50
2017-09-12T06:28:29.522Z,22.50
2017-09-12T06:29:29.604Z,16.88
2017-09-12T06:30:29.537Z,11.25
2017-09-12T06:31:29.536Z,11.25
2017-09-12T06:32:29.552Z,11.25
2017-09-12T06:33:29.613Z,11.25
2017-09-12T06:34:29.578Z,11.25
2017-09-12T06:35:29.638Z,5.63
2017-09-12T06:36:29.596Z,5.63
2017-09-12T06:37:29.598Z,5.63
2017-09-12T06:38:29.649Z,11.25
2017-09-12T06:39:29.619Z,11.25
2017-09-12T06:40:29.771Z,5.63
2017-09-12T06:41:29.646Z,11.25
2017-09-12T06:42:29.777Z,22.50
2017-09-12T06:43:29.669Z,16.88
2017-09-12T06:44:29.789Z,11.25
2017-09-12T06:45:29.708Z,22.50
2017-09-12T06:46:29.806Z,22.50
2017-09-12T06:47:29.711Z,22.50
2017-09-12T06:48:29.709Z,33.75
2017-09-12T06:49:29.728Z,16.88
2017-09-12T06:50:29.734Z,11.25
2017-09-12T06:51:29.746Z,16.88
2017-09-12T06:52:29.761Z,16.88
2017-09-12T06:53:29.850Z,16.88
2017-09-12T06:54:29.783Z,22.50
2017-09-12T06:55:29.865Z,39.38
2017-09-12T06:56:29.829Z,16.88
2017-09-12T06:57:29.877Z,11.25
2017-09-12T06:58:29.815Z,16.88
2017-09-12T06:59:29.826Z,28.13
2017-09-12T07:00:29.840Z,16.88
2017-09-12T07:01:29.847Z,33.75
2017-09-12T07:02:29.914Z,22.50
2017-09-12T07:03:29.869Z,39.38
2017-09-12T07:04:29.931Z,28.13
2017-09-12T07:05:29.898Z,28.13
2017-09-12T07:06:29.911Z,16.88
2017-09-12T07:07:29.935Z,16.88
2017-09-12T07:08:29.932Z,16.88
2017-09-12T07:09:29.972Z,28.13
2017-09-12T07:10:29.962Z,45.00
2017-09-12T07:11:29.958Z,22.50
2017-09-12T07:12:29.962Z,22.50
2017-09-12T07:13:29.991Z,33.75
2017-09-12T07:14:29.986Z,22.50
2017-09-12T07:15:29.996Z,28.13
2017-09-12T07:16:30.141Z,22.50
2017-09-12T07:17:30.015Z,28.13
2017-09-12T07:18:30.147Z,39.38
2017-09-12T07:19:30.049Z,39.38
2017-09-12T07:20:30.052Z,28.13
2017-09-12T07:21:30.057Z,28.13
2017-09-12T07:22:30.070Z,16.88
2017-09-12T07:23:30.072Z,11.25
2017-09-12T07:24:30.083Z,5.63
2017-09-12T07:25:30.098Z,11.25
2017-09-12T07:26:30.106Z,16.88
2017-09-12T07:27:30.116Z,22.50
2017-09-12T07:28:30.129Z,16.88
2017-09-12T07:29:30.133Z,16.88
2017-09-12T07:30:30.141Z,11.25
2017-09-12T07:31:30.152Z,11.25
2017-09-12T07:32:30.163Z,28.13
2017-09-12T07:33:30.724Z,28.13
2017-09-12T07:34:30.188Z,22.50
2017-09-12T07:35:30.722Z,16.88
2017-09-12T07:36:30.212Z,16.88
2017-09-12T07:37:30.216Z,22.50
2017-09-12T07:38:30.245Z,22.50
2017-09-12T07:39:30.267Z,22.50
2017-09-12T07:40:30.265Z,22.50
2017-09-12T07:41:30.277Z,28.13
2017-09-12T07:42:30.402Z,28.13
2017-09-12T07:43:30.282Z,33.75
2017-09-12T07:44:30.408Z,39.38
2017-09-12T07:45:30.298Z,39.38
2017-09-12T07:46:30.430Z,22.50
2017-09-12T07:47:30.323Z,22.50
2017-09-12T07:48:31.228Z,22.50
2017-09-12T07:49:30.342Z,28.13
2017-09-12T07:50:30.352Z,33.75
2017-09-12T07:51:30.359Z,28.13
2017-09-12T07:52:30.373Z,28.13
2017-09-12T07:53:30.463Z,33.75
2017-09-12T07:54:30.423Z,50.63
2017-09-12T07:55:30.473Z,45.00
2017-09-12T07:56:30.408Z,39.38
2017-09-12T07:57:30.492Z,28.13
2017-09-12T07:58:30.431Z,28.13
2017-09-12T07:59:30.444Z,39.38
2017-09-12T08:00:30.448Z,39.38
2017-09-12T08:01:30.519Z,45.00
2017-09-12T08:02:30.476Z,39.38
2017-09-12T08:03:30.542Z,39.38
2017-09-12T08:04:30.490Z,33.75
2017-09-12T08:05:30.542Z,22.50
2017-09-12T08:06:30.512Z,22.50
2017-09-12T08:07:30.564Z,28.13
2017-09-12T08:08:30.537Z,50.63
2017-09-12T08:09:30.571Z,28.13
2017-09-12T08:10:30.553Z,33.75
2017-09-12T08:11:30.586Z,39.38
2017-09-12T08:12:30.579Z,39.38
2017-09-12T08:13:30.582Z,39.38
2017-09-12T08:14:30.599Z,39.38
2017-09-12T08:15:30.715Z,39.38
2017-09-12T08:16:30.615Z,28.13
2017-09-12T08:17:30.728Z,39.38
2017-09-12T08:18:30.635Z,22.50
2017-09-12T08:19:31.669Z,28.13
2017-09-12T08:20:30.655Z,28.13
2017-09-12T08:21:31.776Z,16.88
2017-09-12T08:22:30.678Z,11.25
2017-09-12T08:23:30.770Z,16.88
2017-09-12T08:24:30.709Z,22.50
2017-09-12T08:25:30.793Z,39.38
2017-09-12T08:26:30.716Z,39.38
2017-09-12T08:27:30.801Z,39.38
2017-09-12T08:28:30.742Z,22.50
2017-09-12T08:29:30.748Z,39.38
2017-09-12T08:30:30.761Z,39.38
2017-09-12T08:31:30.773Z,39.38
2017-09-12T08:32:30.783Z,39.38
2017-09-12T08:33:30.791Z,39.38
2017-09-12T08:34:30.800Z,50.63
2017-09-12T08:35:30.856Z,50.63
2017-09-12T08:36:30.821Z,45.00
2017-09-12T08:37:30.828Z,50.63
2017-09-12T08:38:31.894Z,45.00
2017-09-12T08:39:30.852Z,39.38
2017-09-12T08:40:30.872Z,45.00
2017-09-12T08:41:30.879Z,50.63
2017-09-12T08:42:30.898Z,33.75
2017-09-12T08:43:30.913Z,33.75
2017-09-12T08:44:30.912Z,33.75
2017-09-12T08:45:30.944Z,39.38
2017-09-12T08:46:31.040Z,45.00
2017-09-12T08:47:30.943Z,45.00
2017-09-12T08:48:30.962Z,50.63
2017-09-12T08:49:30.952Z,33.75
2017-09-12T08:50:30.968Z,28.13
2017-09-12T08:51:31.050Z,28.13
2017-09-12T08:52:30.982Z,28.13
2017-09-12T08:53:31.078Z,39.38
2017-09-12T08:54:31.013Z,33.75
2017-09-12T08:55:31.017Z,33.75
2017-09-12T08:56:31.023Z,50.63
2017-09-12T08:57:31.042Z,45.00
2017-09-12T08:58:31.047Z,28.13
2017-09-12T08:59:31.059Z,33.75
2017-09-12T09:00:31.067Z,61.88
2017-09-12T09:01:31.085Z,45.00
2017-09-12T09:02:31.088Z,56.25
2017-09-12T09:03:31.102Z,39.38
2017-09-12T09:04:31.109Z,28.13
2017-09-12T09:05:31.167Z,22.50
2017-09-12T09:06:31.123Z,28.13
2017-09-12T09:07:31.138Z,22.50
2017-09-12T09:08:31.144Z,28.13
2017-09-12T09:09:31.158Z,28.13
2017-09-12T09:10:31.166Z,45.00
2017-09-12T09:11:31.179Z,45.00
2017-09-12T09:12:31.184Z,39.38
2017-09-12T09:13:31.194Z,39.38
2017-09-12T09:14:31.209Z,39.38
2017-09-12T09:15:31.226Z,39.38
2017-09-12T09:16:31.232Z,39.38
2017-09-12T09:17:31.347Z,33.75
2017-09-12T09:18:31.255Z,45.00
2017-09-12T09:19:31.255Z,50.63
2017-09-12T09:20:31.275Z,56.25
2017-09-12T09:21:32.394Z,56.25
2017-09-12T09:22:31.302Z,56.25
2017-09-12T09:23:31.306Z,56.25
2017-09-12T09:24:31.331Z,61.88
2017-09-12T09:25:31.321Z,56.25
2017-09-12T09:26:31.333Z,50.63
2017-09-12T09:27:31.409Z,50.63
2017-09-12T09:28:31.357Z,61.88
2017-09-12T09:29:31.423Z,67.50
2017-09-12T09:30:31.377Z,67.50
2017-09-12T09:31:31.394Z,61.88
2017-09-12T09:32:31.398Z,56.25
2017-09-12T09:33:31.409Z,50.63
2017-09-12T09:34:31.417Z,45.00
2017-09-12T09:35:31.432Z,28.13
2017-09-12T09:36:31.442Z,33.75
2017-09-12T09:37:31.449Z,56.25
2017-09-12T09:38:31.463Z,56.25
2017-09-12T09:39:31.479Z,56.25
2017-09-12T09:40:43.318Z,45.00
2017-09-12T09:41:31.527Z,39.38
2017-09-12T09:42:36.355Z,39.38
2017-09-12T09:43:31.514Z,33.75
2017-09-12T09:44:32.574Z,45.00
2017-09-12T09:45:31.543Z,45.00
2017-09-12T09:46:32.584Z,50.63
2017-09-12T09:47:31.556Z,39.38
2017-09-12T09:48:33.645Z,33.75
2017-09-12T09:49:31.577Z,39.38
2017-09-12T09:50:31.612Z,33.75
2017-09-12T09:51:31.599Z,33.75
2017-09-12T09:52:31.627Z,22.50
2017-09-12T09:53:31.638Z,28.13
2017-09-12T09:54:31.627Z,56.25
2017-09-12T09:55:32.672Z,61.88
2017-09-12T09:56:31.663Z,56.25
2017-09-12T09:57:31.765Z,50.63
2017-09-12T09:58:31.674Z,45.00
2017-09-12T09:59:31.686Z,39.38
2017-09-12T10:00:31.694Z,39.38
2017-09-12T10:01:31.707Z,39.38
2017-09-12T10:02:31.722Z,45.00
2017-09-12T10:03:31.730Z,45.00
2017-09-12T10:04:31.737Z,33.75
2017-09-12T10:05:31.748Z,45.00
2017-09-12T10:06:31.760Z,50.63
2017-09-12T10:07:31.769Z,61.88
2017-09-12T10:08:31.782Z,50.63
2017-09-12T10:09:31.792Z,50.63
2017-09-12T10:10:32.884Z,50.63
2017-09-12T10:11:31.834Z,50.63
2017-09-12T10:12:33.920Z,56.25
2017-09-12T10:13:31.851Z,39.38
2017-09-12T10:14:32.902Z,61.88
2017-09-12T10:15:31.855Z,50.63
2017-09-12T10:16:31.867Z,73.13
2017-09-12T10:17:31.878Z,67.50
2017-09-12T10:18:31.886Z,61.88
2017-09-12T10:19:31.899Z,61.88
2017-09-12T10:20:31.912Z,61.88
2017-09-12T10:21:31.922Z,39.38
2017-09-12T10:22:31.931Z,33.75
2017-09-12T10:23:31.949Z,45.00
2017-09-12T10:24:31.951Z,50.63
2017-09-12T10:25:31.972Z,56.25
2017-09-12T10:26:31.980Z,45.00
2017-09-12T10:27:31.997Z,45.00
2017-09-12T10:28:32.078Z,45.00
2017-09-12T10:29:32.007Z,39.38
2017-09-12T10:30:32.091Z,33.75
2017-09-12T10:31:32.033Z,45.00
2017-09-12T10:32:32.040Z,33.75
2017-09-12T10:33:32.055Z,50.63
2017-09-12T10:34:32.065Z,39.38
2017-09-12T10:35:32.174Z,56.25
2017-09-12T10:36:32.094Z,50.63
2017-09-12T10:37:32.097Z,61.88
2017-09-12T10:38:33.167Z,61.88
2017-09-12T10:39:32.189Z,50.63
2017-09-12T10:40:32.127Z,61.88
2017-09-12T10:41:33.186Z,56.25
2017-09-12T10:42:32.158Z,56.25
2017-09-12T10:43:32.166Z,39.38
2017-09-12T10:44:32.183Z,50.63
2017-09-12T10:45:32.292Z,50.63
2017-09-12T10:46:32.197Z,50.63
2017-09-12T10:47:32.208Z,56.25
2017-09-12T10:48:32.218Z,56.25
2017-09-12T10:49:32.243Z,39.38
2017-09-12T10:50:32.247Z,45.00
2017-09-12T10:51:32.256Z,33.75
2017-09-12T10:52:32.345Z,33.75
2017-09-12T10:53:32.272Z,39.38
2017-09-12T10:54:32.284Z,50.63
2017-09-12T10:55:33.389Z,56.25
2017-09-12T10:56:32.385Z,56.25
2017-09-12T10:57:32.377Z,45.00
2017-09-12T10:58:32.332Z,39.38
2017-09-12T10:59:33.415Z,45.00
2017-09-12T11:00:32.355Z,45.00
2017-09-12T11:01:32.406Z,56.25
2017-09-12T11:02:32.377Z,50.63
2017-09-12T11:03:32.388Z,39.38
2017-09-12T11:04:32.397Z,39.38
2017-09-12T11:05:32.429Z,39.38
2017-09-12T11:06:32.420Z,22.50
2017-09-12T11:07:32.546Z,22.50
2017-09-12T11:08:32.442Z,28.13
2017-09-12T11:09:32.558Z,28.13
2017-09-12T11:10:32.465Z,39.38
2017-09-12T11:11:32.482Z,39.38
2017-09-12T11:12:32.487Z,39.38
2017-09-12T11:13:32.592Z,33.75
2017-09-12T11:14:32.510Z,33.75
2017-09-12T11:15:32.599Z,28.13
2017-09-12T11:16:32.529Z,28.13
2017-09-12T11:17:32.613Z,33.75
2017-09-12T11:18:32.556Z,45.00
2017-09-12T11:19:32.566Z,39.38
2017-09-12T11:20:32.633Z,39.38
2017-09-12T11:21:32.590Z,28.13
2017-09-12T11:22:32.645Z,22.50
2017-09-12T11:23:32.614Z,28.13
2017-09-12T11:24:32.665Z,33.75
2017-09-12T11:25:32.651Z,28.13
2017-09-12T11:26:32.672Z,28.13
2017-09-12T11:27:32.662Z,33.75
2017-09-12T11:28:32.687Z,45.00
2017-09-12T11:29:32.676Z,45.00
2017-09-12T11:30:32.803Z,50.63
2017-09-12T11:31:32.719Z,45.00
2017-09-12T11:32:32.823Z,45.00
2017-09-12T11:33:32.739Z,45.00
2017-09-12T11:34:32.846Z,50.63
2017-09-12T11:35:32.751Z,50.63
2017-09-12T11:36:32.844Z,45.00
2017-09-12T11:37:32.775Z,50.63
2017-09-12T11:38:32.857Z,50.63
2017-09-12T11:39:32.795Z,50.63
2017-09-12T11:40:32.875Z,50.63
2017-09-12T11:41:32.818Z,50.63
2017-09-12T11:42:32.886Z,50.63
2017-09-12T11:43:32.841Z,45.00
2017-09-12T11:44:32.895Z,39.38
2017-09-12T11:45:32.861Z,39.38
2017-09-12T11:46:32.911Z,33.75
2017-09-12T11:47:32.896Z,33.75
2017-09-12T11:48:34.019Z,33.75
2017-09-12T11:49:32.916Z,33.75
2017-09-12T11:50:32.980Z,28.13
2017-09-12T11:51:32.931Z,28.13
2017-09-12T11:52:34.012Z,28.13
2017-09-12T11:53:32.953Z,28.13
2017-09-12T11:54:33.003Z,28.13
2017-09-12T11:55:33.030Z,28.13
2017-09-12T11:56:33.015Z,33.75
2017-09-12T11:57:32.997Z,28.13
2017-09-12T11:58:33.335Z,28.13
2017-09-12T11:59:33.027Z,33.75
2017-09-12T12:00:34.069Z,33.75
2017-09-12T12:01:33.074Z,33.75
2017-09-12T12:02:34.082Z,28.13
2017-09-12T12:03:33.074Z,39.38
2017-09-12T12:04:33.176Z,45.00
2017-09-12T12:05:33.093Z,39.38
2017-09-12T12:06:33.183Z,45.00
2017-09-12T12:07:33.118Z,45.00
2017-09-12T12:08:33.198Z,45.00
2017-09-12T12:09:33.139Z,45.00
2017-09-12T12:10:33.215Z,50.63
2017-09-12T12:11:33.173Z,50.63
2017-09-12T12:12:33.232Z,61.88
2017-09-12T12:13:33.189Z,61.88
2017-09-12T12:14:33.213Z,67.50
2017-09-12T12:15:35.305Z,67.50
2017-09-12T12:16:33.224Z,61.88
2017-09-12T12:17:33.260Z,50.63
2017-09-12T12:18:33.249Z,45.00
2017-09-12T12:19:33.278Z,33.75
2017-09-12T12:20:33.275Z,33.75
2017-09-12T12:21:34.312Z,28.13
2017-09-12T12:22:33.301Z,28.13
2017-09-12T12:23:33.409Z,22.50
2017-09-12T12:24:33.323Z,28.13
2017-09-12T12:25:33.416Z,28.13
2017-09-12T12:26:33.342Z,28.13
2017-09-12T12:27:33.432Z,28.13
2017-09-12T12:28:33.366Z,28.13
2017-09-12T12:29:33.375Z,22.50
2017-09-12T12:30:33.448Z,28.13
2017-09-12T12:31:33.401Z,33.75
2017-09-12T12:32:33.469Z,33.75
2017-09-12T12:33:33.424Z,33.75
2017-09-12T12:34:35.529Z,33.75
2017-09-12T12:35:33.452Z,33.75
2017-09-12T12:36:33.493Z,28.13
2017-09-12T12:37:33.473Z,33.75
2017-09-12T12:38:33.505Z,28.13
2017-09-12T12:39:33.499Z,28.13
2017-09-12T12:40:38.334Z,39.38
2017-09-12T12:41:33.522Z,45.00
2017-09-12T12:42:35.584Z,50.63
2017-09-12T12:43:33.556Z,56.25
2017-09-12T12:44:38.359Z,61.88
2017-09-12T12:45:33.576Z,56.25
2017-09-12T12:46:38.403Z,50.63
2017-09-12T12:47:33.611Z,50.63
2017-09-12T12:48:34.705Z,39.38
2017-09-12T12:49:33.708Z,39.38
2017-09-12T12:50:35.745Z,33.75
2017-09-12T12:51:33.654Z,28.13
2017-09-12T12:52:33.708Z,28.13
2017-09-12T12:53:33.664Z,28.13
2017-09-12T12:54:35.769Z,33.75
2017-09-12T12:55:33.691Z,28.13
2017-09-12T12:56:35.787Z,22.50
2017-09-12T12:57:33.720Z,22.50
2017-09-12T12:58:33.755Z,22.50
2017-09-12T12:59:33.744Z,28.13
2017-09-12T13:00:33.857Z,22.50
2017-09-12T13:01:33.762Z,22.50
2017-09-12T13:02:33.874Z,28.13
2017-09-12T13:03:33.786Z,28.13
2017-09-12T13:04:34.909Z,28.13